Acarape (Anttnio Diogo (Redengco), Brazil
Current Conditions -  °F | °C
As of 4:00 PM on Tuesday 21 Oct 2014 (Local Time) from SBFZ Reporting Station
Few Clouds Few Clouds  
Wind Chill: 82°   Ceiling: Unl
Heat Index: 85°   Visibility: 6mi
Dew Point: 66°   Wind: 18mph
Humidity: 58%   Direction: 120°ESE
Pressure: 29.85"   Gusts: NA
Location:  4.22°S, 38.7°W
Report Text: SBFZ 211900Z 12016KT 9999 FEW025 28/19 Q1011
Loading
Personal Weather Stations






























Interactive Weather Map
Tropical Storm Tracking
New forecast layout! Learn more

10-Day Weather Forecast

Advertisements
Track Severe Weather on mobile